Time;durP1;ratioP1;P1;durP2;ratioP2;P2;SDS_P1;SDS_P2;PMS_P1;PMS_P2;Temp;Humidity;BMP_temperature;BMP_pressure;BME280_temperature;BME280_humidity;BME280_pressure;Samples;Min_cycle;Max_cycle;Signal;HPM_P1;HPM_P2
2023/04/10 00:01:39;;;;;;;8.55;4.47;;;;;;;7.47;64.16;102461.38;4923708;29;20112;-47
2023/04/10 00:04:05;;;;;;;7.13;4.28;;;;;;;7.38;64.38;102461.50;4926486;29;20444;-47
2023/04/10 00:06:31;;;;;;;14.63;5.00;;;;;;;7.37;64.40;102457.16;4927472;29;20046;-47
2023/04/10 00:08:59;;;;;;;8.48;4.60;;;;;;;7.38;64.46;102462.38;4923139;29;20028;-47
2023/04/10 00:11:26;;;;;;;10.45;4.05;;;;;;;7.32;64.41;102460.75;4924433;29;20114;-47
2023/04/10 00:13:52;;;;;;;12.90;4.60;;;;;;;7.23;64.67;102452.16;4926222;29;20062;-47
2023/04/10 00:16:18;;;;;;;8.18;4.35;;;;;;;7.22;64.54;102448.66;4931092;29;20114;-47
2023/04/10 00:18:43;;;;;;;13.20;4.82;;;;;;;7.25;64.42;102453.88;4923648;29;20444;-47
2023/04/10 00:21:09;;;;;;;10.90;4.18;;;;;;;7.20;64.90;102450.44;4906373;29;21007;-47
2023/04/10 00:23:34;;;;;;;12.68;4.97;;;;;;;7.19;64.70;102448.72;4923919;29;20031;-47
2023/04/10 00:26:00;;;;;;;8.50;4.03;;;;;;;7.16;64.58;102454.88;4920682;29;20539;-47
2023/04/10 00:28:27;;;;;;;8.45;4.07;;;;;;;7.23;64.80;102454.78;4923543;29;20039;-47
2023/04/10 00:30:52;;;;;;;7.70;4.18;;;;;;;7.22;64.57;102445.19;4906429;29;20028;-46
2023/04/10 00:33:18;;;;;;;7.97;4.68;;;;;;;7.26;64.46;102445.13;4926583;29;20049;-47
2023/04/10 00:35:43;;;;;;;9.10;4.40;;;;;;;7.27;64.33;102444.22;4929810;29;20094;-46
2023/04/10 00:38:09;;;;;;;11.80;5.63;;;;;;;7.23;64.66;102439.94;4920450;29;20039;-47
2023/04/10 00:40:34;;;;;;;8.65;4.18;;;;;;;7.14;64.68;102440.09;4922606;29;20036;-46
2023/04/10 00:43:00;;;;;;;8.40;4.07;;;;;;;7.16;64.72;102448.78;4921032;29;20035;-47
2023/04/10 00:45:25;;;;;;;10.85;4.63;;;;;;;7.09;65.10;102442.78;4928303;29;20102;-47
2023/04/10 00:47:51;;;;;;;9.02;4.55;;;;;;;7.11;65.10;102446.22;4927195;29;20123;-47
2023/04/10 00:50:18;;;;;;;9.40;4.63;;;;;;;7.11;64.71;102438.38;4920055;29;20043;-47
2023/04/10 00:52:43;;;;;;;10.73;5.13;;;;;;;7.03;64.96;102434.16;4916689;29;20460;-47
2023/04/10 00:55:09;;;;;;;16.15;5.20;;;;;;;6.92;64.97;102434.31;4924419;29;20559;-48
2023/04/10 00:57:35;;;;;;;11.27;4.82;;;;;;;6.97;64.94;102432.47;4917369;29;20058;-47
2023/04/10 01:00:01;;;;;;;11.00;5.63;;;;;;;7.03;64.66;102426.31;4925389;29;20496;-47
2023/04/10 01:02:26;;;;;;;11.50;5.00;;;;;;;7.07;64.82;102422.75;4921284;29;20055;-47
2023/04/10 01:04:53;;;;;;;11.52;6.03;;;;;;;7.05;64.77;102427.13;4923380;29;20040;-47
2023/04/10 01:08:01;;;;;;;13.13;5.18;;;;;;;7.06;64.67;102426.25;4921202;29;20141;-47
2023/04/10 01:10:46;;;;;;;11.18;4.18;;;;;;;7.07;64.82;102427.97;4930612;29;20035;-48
2023/04/10 01:13:18;;;;;;;13.70;4.72;;;;;;;7.07;64.54;102417.50;4926639;29;20035;-47
2023/04/10 01:16:14;;;;;;;13.50;5.35;;;;;;;7.11;64.56;102417.41;4920427;29;20031;-47
2023/04/10 01:18:45;;;;;;;10.02;5.25;;;;;;;7.10;64.33;102423.56;4926017;29;20071;-47
2023/04/10 01:21:13;;;;;;;14.25;5.13;;;;;;;7.05;64.74;102425.38;4915787;29;20076;-46
2023/04/10 01:24:00;;;;;;;14.35;5.60;;;;;;;6.97;64.53;102428.13;4921713;29;20070;-46
2023/04/10 01:26:41;;;;;;;11.05;5.15;;;;;;;6.88;64.77;102423.03;4922723;29;20626;-46
2023/04/10 01:29:12;;;;;;;10.15;4.82;;;;;;;6.85;65.02;102429.16;4926282;29;20031;-46
2023/04/10 01:32:11;;;;;;;10.23;5.00;;;;;;;6.83;65.24;102430.09;4928674;29;20031;-47
2023/04/10 01:34:45;;;;;;;12.60;5.13;;;;;;;6.79;64.92;102421.44;4924911;29;20042;-46
2023/04/10 01:37:29;;;;;;;8.85;5.10;;;;;;;6.79;65.05;102429.28;4928608;29;20035;-47
2023/04/10 01:40:00;;;;;;;11.80;6.28;;;;;;;6.78;64.96;102427.56;4925245;29;20080;-47
2023/04/10 01:42:31;;;;;;;14.45;5.40;;;;;;;6.80;65.04;102430.13;4933335;29;20031;-47
2023/04/10 01:44:58;;;;;;;8.73;5.22;;;;;;;6.83;64.81;102430.09;4923776;29;20032;-47
2023/04/10 01:47:25;;;;;;;8.75;4.60;;;;;;;6.86;64.43;102424.81;4926843;29;20167;-47
2023/04/10 01:49:53;;;;;;;12.90;6.10;;;;;;;6.80;64.78;102425.78;4926453;29;20425;-47
2023/04/10 01:52:20;;;;;;;8.23;4.63;;;;;;;6.75;64.66;102424.97;4929259;29;20047;-47
2023/04/10 01:54:47;;;;;;;8.70;5.15;;;;;;;6.71;64.54;102421.53;4928931;29;20130;-46
2023/04/10 01:57:14;;;;;;;10.65;5.40;;;;;;;6.71;64.88;102429.41;4926627;29;20068;-47
2023/04/10 01:59:40;;;;;;;12.35;5.45;;;;;;;6.76;64.32;102416.25;4932011;29;20115;-47
2023/04/10 02:02:12;;;;;;;18.52;6.18;;;;;;;6.71;64.33;102416.31;4931587;29;20030;-47
2023/04/10 02:04:38;;;;;;;7.60;4.50;;;;;;;6.67;64.49;102418.97;4924418;29;20107;-47
2023/04/10 02:07:10;;;;;;;11.38;5.60;;;;;;;6.61;64.51;102416.47;4926753;29;20032;-47
2023/04/10 02:09:45;;;;;;;10.75;4.55;;;;;;;6.51;64.71;102413.94;4931287;29;20086;-47
2023/04/10 02:12:17;;;;;;;10.20;5.80;;;;;;;6.48;64.57;102415.75;4953446;23;20145;-47
2023/04/10 02:14:45;;;;;;;;;;;;;;;6.39;65.04;102414.13;4927277;29;20138;-48
2023/04/10 02:17:14;;;;;;;11.48;5.00;;;;;;;6.42;64.65;102413.25;4924955;29;19923;-48
2023/04/10 02:19:41;;;;;;;12.77;5.55;;;;;;;6.41;65.02;102409.75;4927975;29;20032;-48
2023/04/10 02:22:07;;;;;;;10.30;5.13;;;;;;;6.43;64.79;102412.34;4921119;29;20038;-48
2023/04/10 02:24:34;;;;;;;11.05;5.05;;;;;;;6.43;64.63;102405.38;4928316;29;20146;-49
2023/04/10 02:27:00;;;;;;;7.75;5.30;;;;;;;6.43;64.64;102415.81;4926014;29;20036;-48
2023/04/10 02:29:25;;;;;;;10.20;5.70;;;;;;;6.40;64.90;102411.50;4929264;29;20039;-48
2023/04/10 02:31:51;;;;;;;9.32;5.60;;;;;;;6.44;64.94;102420.16;4930384;29;20044;-48
2023/04/10 02:34:16;;;;;;;13.57;5.80;;;;;;;6.39;64.93;102420.25;4923297;29;20042;-48
2023/04/10 02:36:42;;;;;;;12.45;5.68;;;;;;;6.30;64.70;102412.50;4930042;29;20038;-49
2023/04/10 02:39:07;;;;;;;17.67;6.38;;;;;;;6.28;64.89;102416.88;4925022;29;20027;-48
2023/04/10 02:41:33;;;;;;;8.60;5.60;;;;;;;6.29;64.89;102418.59;4930542;29;20031;-47
2023/04/10 02:43:58;;;;;;;13.68;6.85;;;;;;;6.28;64.92;102413.41;4931578;29;20453;-48
2023/04/10 02:46:24;;;;;;;15.45;5.22;;;;;;;6.25;64.67;102416.94;4930442;29;20042;-50
2023/04/10 02:48:51;;;;;;;14.88;5.47;;;;;;;6.19;65.31;102422.22;4923781;29;20118;-48
2023/04/10 02:51:16;;;;;;;7.80;4.68;;;;;;;6.10;65.09;102421.47;4925158;29;20055;-49
2023/04/10 02:53:42;;;;;;;11.15;5.18;;;;;;;6.16;64.96;102411.81;4930799;29;20028;-48
2023/04/10 02:56:08;;;;;;;8.25;5.25;;;;;;;6.19;64.71;102417.88;4922808;29;20373;-48
2023/04/10 02:58:34;;;;;;;9.93;4.25;;;;;;;6.14;64.70;102419.69;4924886;29;20057;-47
2023/04/10 03:01:00;;;;;;;10.43;5.72;;;;;;;6.11;64.66;102419.72;4926217;29;20032;-49
2023/04/10 03:03:25;;;;;;;9.00;5.00;;;;;;;6.14;65.04;102419.69;4919964;29;20369;-50
2023/04/10 03:05:52;;;;;;;8.65;5.40;;;;;;;6.10;64.64;102420.59;4927423;29;20403;-49
2023/04/10 03:08:18;;;;;;;7.70;5.65;;;;;;;6.13;64.55;102423.16;4930397;29;20032;-48
2023/04/10 03:10:44;;;;;;;9.55;4.95;;;;;;;6.14;64.59;102426.63;4922617;29;20064;-49
2023/04/10 03:13:10;;;;;;;12.73;5.68;;;;;;;6.07;64.57;102431.97;4921694;29;20031;-50
2023/04/10 03:15:36;;;;;;;12.10;5.07;;;;;;;5.98;64.92;102423.31;4926527;29;20046;-50
2023/04/10 03:18:02;;;;;;;10.63;4.93;;;;;;;5.95;65.04;102419.00;4924826;29;20035;-48
2023/04/10 03:20:27;;;;;;;10.88;5.72;;;;;;;6.02;64.82;102425.06;4925582;29;20476;-48
2023/04/10 03:22:52;;;;;;;8.23;5.40;;;;;;;6.01;64.88;102418.94;4920145;29;20112;-50
2023/04/10 03:25:18;;;;;;;9.32;5.30;;;;;;;6.06;64.58;102427.63;4929994;29;21295;-49
2023/04/10 03:27:43;;;;;;;8.52;4.97;;;;;;;6.02;64.23;102422.44;4926908;29;20038;-50
2023/04/10 03:30:09;;;;;;;9.82;4.97;;;;;;;6.04;64.41;102416.31;4932371;29;20159;-50
2023/04/10 03:32:35;;;;;;;10.38;5.25;;;;;;;5.98;64.53;102420.72;4922725;29;20194;-50
2023/04/10 03:35:00;;;;;;;14.98;5.63;;;;;;;5.96;64.38;102423.34;4925325;29;20579;-49
2023/04/10 03:37:26;;;;;;;12.23;6.38;;;;;;;5.91;64.50;102422.53;4908983;29;20039;-48
2023/04/10 03:39:52;;;;;;;17.88;7.03;;;;;;;5.88;64.78;102415.59;4932142;29;20024;-49
2023/04/10 03:42:18;;;;;;;16.33;8.75;;;;;;;5.80;65.01;102412.19;4926090;29;20048;-48
2023/04/10 03:44:43;;;;;;;13.23;7.15;;;;;;;5.77;64.85;102410.50;4931544;29;20122;-48
2023/04/10 03:47:12;;;;;;;14.48;8.05;;;;;;;5.76;65.03;102407.88;4916614;29;20042;-48
2023/04/10 03:49:38;;;;;;;16.05;7.55;;;;;;;5.73;64.91;102416.63;4928409;29;20496;-48
2023/04/10 03:52:03;;;;;;;17.17;8.50;;;;;;;5.75;65.14;102413.97;4923043;29;20123;-49
2023/04/10 03:54:32;;;;;;;11.63;6.47;;;;;;;5.71;65.15;102418.38;4923566;29;20028;-48
2023/04/10 03:56:58;;;;;;;10.30;6.70;;;;;;;5.70;65.19;102419.25;4917652;29;20036;-48
2023/04/10 03:59:23;;;;;;;17.92;8.68;;;;;;;5.65;64.93;102421.91;4932091;29;20035;-48
2023/04/10 04:01:48;;;;;;;11.35;6.28;;;;;;;5.64;65.15;102425.41;4907365;29;20072;-48
2023/04/10 04:04:14;;;;;;;10.88;5.82;;;;;;;5.58;65.33;102419.38;4927996;29;20491;-48
2023/04/10 04:06:40;;;;;;;12.52;5.95;;;;;;;5.56;64.96;102414.19;4925606;29;20048;-47
2023/04/10 04:09:05;;;;;;;11.23;6.68;;;;;;;5.54;65.46;102410.72;4930428;29;20098;-48
2023/04/10 04:11:30;;;;;;;15.43;6.95;;;;;;;5.61;65.08;102419.34;4926788;29;20067;-48
2023/04/10 04:13:56;;;;;;;13.05;6.82;;;;;;;5.63;64.88;102421.06;4929967;29;20111;-49
2023/04/10 04:16:22;;;;;;;15.60;7.30;;;;;;;5.63;65.27;102422.81;4928766;29;20051;-48
2023/04/10 04:18:47;;;;;;;14.65;6.38;;;;;;;5.70;64.92;102421.88;4923732;29;20119;-48
2023/04/10 04:21:13;;;;;;;14.80;7.28;;;;;;;5.79;64.70;102424.41;4916042;29;20026;-48
2023/04/10 04:23:38;;;;;;;11.15;6.10;;;;;;;5.86;64.60;102421.69;4928195;29;20040;-48
2023/04/10 04:26:04;;;;;;;12.38;6.85;;;;;;;5.89;64.03;102421.66;4918313;29;20588;-48
2023/04/10 04:28:29;;;;;;;12.35;6.22;;;;;;;5.85;64.56;102427.81;4915154;29;20027;-48
2023/04/10 04:30:55;;;;;;;12.02;6.20;;;;;;;5.84;64.54;102426.94;4927247;29;20063;-49
2023/04/10 04:33:20;;;;;;;10.55;5.93;;;;;;;5.80;64.62;102428.75;4925909;29;20036;-48
2023/04/10 04:35:46;;;;;;;12.57;6.47;;;;;;;5.79;64.25;102432.22;4923808;29;20031;-49
2023/04/10 04:38:11;;;;;;;15.98;6.15;;;;;;;5.76;64.24;102427.03;4923255;29;20865;-49
2023/04/10 04:40:36;;;;;;;12.32;6.07;;;;;;;5.81;64.50;102429.59;4919797;29;20110;-49
2023/04/10 04:43:02;;;;;;;10.85;6.40;;;;;;;5.84;64.11;102432.19;4923734;29;20039;-48
2023/04/10 04:45:29;;;;;;;12.32;6.65;;;;;;;5.80;64.57;102433.97;4921169;29;20036;-48
2023/04/10 04:47:55;;;;;;;10.98;6.53;;;;;;;5.77;64.48;102433.09;4921652;29;20039;-49
2023/04/10 04:50:20;;;;;;;13.60;6.57;;;;;;;5.74;64.69;102435.78;4918709;29;20094;-49
2023/04/10 04:52:46;;;;;;;13.43;6.28;;;;;;;5.71;64.28;102433.19;4924893;29;20528;-48
2023/04/10 04:55:12;;;;;;;11.82;6.30;;;;;;;5.67;64.43;102424.53;4926439;29;20047;-49
2023/04/10 04:57:37;;;;;;;10.15;5.72;;;;;;;5.63;64.54;102433.28;4926498;29;20040;-49
2023/04/10 05:00:03;;;;;;;9.68;5.68;;;;;;;5.64;64.91;102435.00;4931415;29;20031;-48
2023/04/10 05:02:28;;;;;;;10.50;6.63;;;;;;;5.65;64.59;102428.91;4923443;29;20096;-48
2023/04/10 05:04:54;;;;;;;9.23;5.63;;;;;;;5.67;64.64;102424.53;4923475;29;20031;-50
2023/04/10 05:07:19;;;;;;;12.20;6.40;;;;;;;5.74;64.86;102427.94;4923359;29;20059;-49
2023/04/10 05:09:45;;;;;;;10.45;5.50;;;;;;;5.74;64.39;102431.41;4925280;29;20032;-48
2023/04/10 05:12:10;;;;;;;9.30;6.20;;;;;;;5.84;64.58;102441.75;4926881;29;20447;-48
2023/04/10 05:14:35;;;;;;;12.77;5.72;;;;;;;5.79;64.19;102442.69;4931482;29;20051;-48
2023/04/10 05:17:01;;;;;;;15.88;6.60;;;;;;;5.78;64.47;102440.94;4919103;29;20119;-48
2023/04/10 05:19:26;;;;;;;12.55;7.10;;;;;;;5.78;64.43;102440.06;4923278;29;20481;-49
2023/04/10 05:21:52;;;;;;;11.85;6.25;;;;;;;5.91;64.37;102443.44;4914938;29;20719;-48
2023/04/10 05:24:17;;;;;;;11.85;6.03;;;;;;;5.95;64.20;102450.38;4920754;29;20043;-48
2023/04/10 05:26:42;;;;;;;14.57;6.53;;;;;;;5.89;64.57;102443.47;4923696;29;20748;-48
2023/04/10 05:29:08;;;;;;;9.88;5.32;;;;;;;5.95;64.69;102439.91;4934366;29;20039;-50
2023/04/10 05:31:33;;;;;;;11.60;5.70;;;;;;;6.00;64.45;102438.13;4920841;29;20028;-49
2023/04/10 05:33:59;;;;;;;11.00;5.75;;;;;;;6.00;64.25;102438.13;4924162;29;20140;-49
2023/04/10 05:36:24;;;;;;;14.85;6.22;;;;;;;6.03;64.27;102443.31;4921159;29;20035;-49
2023/04/10 05:38:50;;;;;;;10.63;4.78;;;;;;;6.09;64.33;102435.41;4923304;29;20039;-48
2023/04/10 05:41:15;;;;;;;13.05;5.97;;;;;;;6.14;64.30;102440.59;4916815;29;20035;-48
2023/04/10 05:43:41;;;;;;;12.93;6.32;;;;;;;6.22;64.17;102443.13;4922985;29;20047;-48
2023/04/10 05:46:06;;;;;;;11.82;5.82;;;;;;;6.24;64.12;102436.97;4918876;29;20504;-48
2023/04/10 05:48:32;;;;;;;14.30;6.15;;;;;;;6.27;64.01;102443.03;4924498;29;20027;-48
2023/04/10 05:50:57;;;;;;;11.73;5.97;;;;;;;6.30;64.43;102443.88;4916520;29;20559;-48
2023/04/10 05:53:30;;;;;;;11.50;7.05;;;;;;;6.31;64.36;102439.53;4927669;29;20094;-48
2023/04/10 05:55:56;;;;;;;13.93;6.65;;;;;;;6.32;64.47;102444.72;4920478;29;20032;-48
2023/04/10 05:58:21;;;;;;;12.60;7.07;;;;;;;6.38;64.34;102459.47;4919311;29;20066;-49
2023/04/10 06:00:46;;;;;;;15.95;7.65;;;;;;;6.46;64.06;102451.53;4916725;29;20510;-48
2023/04/10 06:03:12;;;;;;;11.85;7.25;;;;;;;6.51;64.23;102444.50;4920285;29;20496;-48
2023/04/10 06:05:37;;;;;;;18.20;7.68;;;;;;;6.53;64.34;102438.34;4925578;29;21163;-49
2023/04/10 06:08:03;;;;;;;14.13;7.45;;;;;;;6.61;64.35;102432.16;4923538;29;20559;-49
2023/04/10 06:10:29;;;;;;;13.65;7.68;;;;;;;6.67;64.29;102438.16;4921432;29;20059;-48
2023/04/10 06:12:55;;;;;;;15.75;8.40;;;;;;;6.73;63.82;102434.59;4918176;29;20035;-49
2023/04/10 06:15:21;;;;;;;13.57;8.00;;;;;;;6.79;64.01;102437.13;4924148;29;20038;-49
2023/04/10 06:17:46;;;;;;;18.83;8.50;;;;;;;6.85;64.02;102436.16;4928917;29;20030;-49
2023/04/10 06:20:12;;;;;;;15.38;8.10;;;;;;;6.90;64.06;102436.94;4907473;29;20035;-48
2023/04/10 06:22:37;;;;;;;35.30;13.80;;;;;;;6.95;64.16;102439.53;4918423;29;20032;-49
2023/04/10 06:25:04;;;;;;;18.98;8.45;;;;;;;7.00;63.97;102443.78;4928027;29;20484;-50
2023/04/10 06:27:30;;;;;;;16.48;8.80;;;;;;;7.04;64.06;102444.59;4921617;29;20039;-49
2023/04/10 06:29:55;;;;;;;20.92;8.95;;;;;;;7.06;64.04;102436.72;4927358;29;20383;-49
2023/04/10 06:32:21;;;;;;;19.33;9.18;;;;;;;7.08;63.97;102435.81;4931237;29;20059;-48
2023/04/10 06:34:46;;;;;;;18.48;9.48;;;;;;;7.11;64.25;102424.41;4932011;29;20047;-50
2023/04/10 06:37:12;;;;;;;21.05;10.05;;;;;;;7.21;63.80;102423.38;4929085;29;20039;-48
2023/04/10 06:39:38;;;;;;;18.15;9.88;;;;;;;7.26;63.94;102418.94;4922160;29;20445;-48
2023/04/10 06:42:03;;;;;;;14.27;6.63;;;;;;;7.35;64.22;102425.78;4932654;29;20035;-49
2023/04/10 06:44:29;;;;;;;23.00;9.57;;;;;;;7.46;63.96;102430.84;4929645;29;20039;-48
2023/04/10 06:46:54;;;;;;;16.98;10.10;;;;;;;7.55;63.78;102425.41;4912655;29;20090;-49
2023/04/10 06:49:20;;;;;;;17.13;8.95;;;;;;;7.59;63.86;102427.09;4925980;29;20075;-48
2023/04/10 06:51:47;;;;;;;17.08;8.20;;;;;;;7.60;63.70;102420.97;4925863;29;20107;-49
2023/04/10 06:54:14;;;;;;;14.30;8.98;;;;;;;7.63;63.93;102418.31;4924997;29;20079;-48
2023/04/10 06:56:40;;;;;;;21.30;9.13;;;;;;;7.72;64.09;102416.38;4926770;29;20047;-49
2023/04/10 06:59:05;;;;;;;17.17;7.80;;;;;;;7.76;64.06;102413.66;4911195;29;20046;-50
2023/04/10 07:01:31;;;;;;;19.75;7.97;;;;;;;7.83;64.12;102409.16;4920260;29;20496;-48
2023/04/10 07:03:57;;;;;;;18.95;9.88;;;;;;;7.86;64.03;102410.91;4912814;29;20500;-48
2023/04/10 07:06:23;;;;;;;17.67;8.25;;;;;;;7.86;64.31;102411.75;4920864;29;20035;-49
2023/04/10 07:08:48;;;;;;;15.38;7.78;;;;;;;7.89;64.70;102419.56;4903573;29;20042;-48
2023/04/10 07:11:17;;;;;;;13.35;7.57;;;;;;;8.03;64.66;102418.41;4922588;29;20028;-49
2023/04/10 07:13:42;;;;;;;14.73;7.55;;;;;;;8.09;64.48;102413.91;4922579;29;21370;-48
2023/04/10 07:16:08;;;;;;;9.90;5.97;;;;;;;8.10;64.62;102414.75;4890793;29;20032;-48
2023/04/10 07:18:37;;;;;;;17.52;7.75;;;;;;;8.11;64.77;102413.84;4932550;29;20031;-48
2023/04/10 07:21:09;;;;;;;17.15;9.57;;;;;;;8.22;64.63;102417.16;4927126;29;20030;-49
2023/04/10 07:23:35;;;;;;;22.02;9.55;;;;;;;8.31;64.62;102410.84;4917311;29;20075;-49
2023/04/10 07:26:00;;;;;;;11.40;5.95;;;;;;;8.37;64.90;102405.44;4923256;29;20042;-50
2023/04/10 07:28:26;;;;;;;16.40;7.60;;;;;;;8.43;64.70;102408.84;4912799;29;20119;-49
2023/04/10 07:30:51;;;;;;;16.80;8.38;;;;;;;8.46;64.77;102412.25;4927749;29;20098;-49
2023/04/10 07:33:17;;;;;;;20.00;7.95;;;;;;;8.52;64.94;102404.28;4915851;29;20054;-49
2023/04/10 07:35:42;;;;;;;15.40;7.18;;;;;;;8.56;64.79;102407.69;4880086;29;20028;-49
2023/04/10 07:38:07;;;;;;;23.83;12.43;;;;;;;8.62;64.92;102398.81;4923292;29;20043;-48
2023/04/10 07:40:33;;;;;;;17.73;8.45;;;;;;;8.71;64.85;102395.13;4914407;29;20023;-49
2023/04/10 07:42:58;;;;;;;15.10;7.13;;;;;;;8.76;64.57;102396.75;4925971;29;20483;-49
2023/04/10 07:45:24;;;;;;;15.43;7.45;;;;;;;8.81;64.80;102400.13;4919377;29;20051;-50
2023/04/10 07:47:49;;;;;;;15.25;8.50;;;;;;;8.88;64.71;102399.97;4921198;29;20051;-49
2023/04/10 07:50:15;;;;;;;16.23;8.23;;;;;;;8.92;64.62;102399.00;4906122;29;20047;-50
2023/04/10 07:52:40;;;;;;;14.32;7.82;;;;;;;8.98;64.55;102409.38;4921615;29;20474;-50
2023/04/10 07:55:06;;;;;;;16.50;7.82;;;;;;;9.02;64.74;102400.50;4924455;29;20043;-49
2023/04/10 07:57:34;;;;;;;16.50;6.88;;;;;;;9.11;64.59;102397.66;4902040;29;20031;-50
2023/04/10 08:00:00;;;;;;;13.07;6.47;;;;;;;9.14;64.63;102397.59;4924505;29;20699;-50
2023/04/10 08:02:25;;;;;;;17.33;8.15;;;;;;;9.22;64.65;102388.63;4922137;29;20047;-49
2023/04/10 08:04:51;;;;;;;14.32;6.63;;;;;;;9.30;64.47;102395.41;4910947;29;20040;-51
2023/04/10 08:07:19;;;;;;;16.38;7.47;;;;;;;9.41;64.16;102394.25;4906133;29;20071;-51
2023/04/10 08:09:44;;;;;;;13.68;6.63;;;;;;;9.48;64.25;102400.22;4923359;29;20027;-49
2023/04/10 08:12:10;;;;;;;17.25;6.75;;;;;;;9.57;64.40;102394.72;4888626;29;20055;-49
2023/04/10 08:14:35;;;;;;;14.75;7.15;;;;;;;9.63;64.31;102388.44;4920578;29;20039;-49
2023/04/10 08:17:00;;;;;;;17.08;7.40;;;;;;;9.71;64.49;102387.34;4916759;29;20046;-49
2023/04/10 08:19:26;;;;;;;20.42;9.90;;;;;;;9.80;64.27;102383.59;4917047;29;20044;-50
2023/04/10 08:21:51;;;;;;;24.63;11.77;;;;;;;9.86;64.24;102385.19;4920082;29;20032;-50
2023/04/10 08:24:19;;;;;;;12.35;7.32;;;;;;;9.91;64.09;102381.50;4929904;29;20896;-49
2023/04/10 08:26:44;;;;;;;12.13;6.53;;;;;;;10.04;64.07;102383.78;4930920;29;20063;-49
2023/04/10 08:29:09;;;;;;;13.85;6.78;;;;;;;10.08;64.03;102377.53;4924104;29;20066;-49
2023/04/10 08:31:36;;;;;;;17.60;6.68;;;;;;;10.16;64.01;102382.56;4928488;29;20047;-49
2023/04/10 08:34:03;;;;;;;11.73;6.05;;;;;;;10.21;64.06;102373.63;4922934;29;20028;-50
2023/04/10 08:36:28;;;;;;;14.75;7.57;;;;;;;10.36;63.71;102380.16;4929312;29;20106;-49
2023/04/10 08:38:54;;;;;;;13.93;6.97;;;;;;;10.46;63.52;102379.94;4923257;29;20056;-49
2023/04/10 08:41:19;;;;;;;17.92;7.35;;;;;;;10.61;63.35;102374.19;4929671;29;20420;-49
2023/04/10 08:43:45;;;;;;;15.57;6.22;;;;;;;10.69;63.18;102368.69;4933132;29;20485;-49
2023/04/10 08:46:13;;;;;;;14.77;7.22;;;;;;;10.74;63.10;102371.16;4928890;29;20505;-49
2023/04/10 08:49:03;;;;;;;15.88;7.78;;;;;;;10.82;63.28;102369.13;4931641;29;20044;-49
2023/04/10 08:51:41;;;;;;;18.58;6.60;;;;;;;10.89;62.98;102378.56;4931714;29;20027;-49
2023/04/10 08:54:13;;;;;;;14.40;6.63;;;;;;;10.96;63.00;102385.38;4927080;29;20046;-51
2023/04/10 08:56:41;;;;;;;9.52;5.57;;;;;;;11.01;62.89;102374.66;4927656;29;20471;-49
2023/04/10 08:59:08;;;;;;;12.40;5.75;;;;;;;11.08;62.87;102376.16;4922084;29;20607;-49
2023/04/10 09:01:34;;;;;;;10.20;5.05;;;;;;;11.17;62.81;102367.09;4927732;29;20031;-50
2023/04/10 09:04:01;;;;;;;10.95;5.25;;;;;;;11.21;62.83;102375.75;4928863;29;20094;-49
2023/04/10 09:06:26;;;;;;;12.10;5.40;;;;;;;11.29;62.56;102371.09;4927231;29;20500;-50
2023/04/10 09:08:52;;;;;;;11.98;6.03;;;;;;;11.35;62.55;102370.00;4928222;29;20485;-55
2023/04/10 09:11:17;;;;;;;10.68;4.95;;;;;;;11.38;62.52;102364.63;4930059;29;20083;-56
2023/04/10 09:13:43;;;;;;;12.90;6.50;;;;;;;11.38;62.73;102364.63;4931991;29;20036;-58
2023/04/10 09:16:10;;;;;;;12.10;5.57;;;;;;;11.39;62.76;102350.53;4927452;29;20408;-43
2023/04/10 09:18:50;;;;;;;13.35;5.95;;;;;;;11.46;62.93;102354.66;4927375;29;20114;-46
2023/04/10 09:21:18;;;;;;;10.70;5.80;;;;;;;11.53;62.89;102348.28;4925894;29;20749;-48
2023/04/10 09:23:45;;;;;;;22.83;8.43;;;;;;;11.60;62.61;102348.91;4925366;29;20046;-45
2023/04/10 09:26:31;;;;;;;12.82;6.22;;;;;;;11.64;62.51;102339.09;4925004;29;20052;-48
2023/04/10 09:29:04;;;;;;;14.60;5.65;;;;;;;11.65;62.65;102335.56;4928571;29;20445;-46
2023/04/10 09:31:35;;;;;;;13.85;6.35;;;;;;;11.69;62.55;102334.53;4924223;29;20042;-46
2023/04/10 09:34:17;;;;;;;19.92;9.40;;;;;;;11.71;62.69;102335.34;4925021;29;20523;-47
2023/04/10 09:36:53;;;;;;;12.88;6.47;;;;;;;11.76;62.66;102328.09;4923532;29;20484;-49
2023/04/10 09:39:18;;;;;;;12.82;6.95;;;;;;;11.83;62.45;102323.44;4926885;29;20154;-46
2023/04/10 09:41:50;;;;;;;14.13;6.00;;;;;;;11.87;62.38;102319.78;4924628;29;20058;-50
2023/04/10 09:44:18;;;;;;;;;;;;;;;11.96;62.18;102322.06;4926455;29;20561;-47
2023/04/10 09:46:45;;;;;;;9.90;5.15;;;;;;;12.05;61.90;102312.97;4924957;29;19923;-46
2023/04/10 09:49:10;;;;;;;16.98;5.35;;;;;;;12.08;61.66;102306.72;4929991;29;20027;-46
2023/04/10 09:51:36;;;;;;;11.77;5.30;;;;;;;12.13;61.54;102303.00;4922053;29;20084;-46
2023/04/10 09:54:02;;;;;;;9.48;4.35;;;;;;;12.19;61.59;102310.66;4923548;29;20075;-46
2023/04/10 09:56:29;;;;;;;9.15;4.78;;;;;;;12.33;60.88;102303.94;4922885;29;20035;-47
2023/04/10 09:58:58;;;;;;;13.43;4.45;;;;;;;12.41;60.80;102293.97;4925764;29;20047;-46
2023/04/10 10:01:28;;;;;;;9.10;5.53;;;;;;;12.46;60.43;102285.84;4931772;29;20106;-50
2023/04/10 10:03:57;;;;;;;9.95;4.45;;;;;;;12.54;60.36;102283.75;4932771;29;20031;-46
2023/04/10 10:06:22;;;;;;;10.52;5.05;;;;;;;12.65;60.04;102285.94;4928732;29;21936;-46
2023/04/10 10:08:48;;;;;;;14.65;3.67;;;;;;;12.77;59.90;102282.81;4934174;29;20038;-51
2023/04/10 10:11:20;;;;;;;10.52;4.38;;;;;;;12.82;59.81;102285.25;4933506;29;20579;-46
2023/04/10 10:13:53;;;;;;;10.95;4.80;;;;;;;12.90;59.79;102280.47;4923547;29;20654;-43
2023/04/10 10:16:30;;;;;;;10.50;4.80;;;;;;;12.99;59.56;102273.09;4930681;29;20492;-43
2023/04/10 10:19:14;;;;;;;11.27;4.60;;;;;;;13.06;59.48;102267.47;4922657;29;20031;-42
2023/04/10 10:21:42;;;;;;;10.07;4.28;;;;;;;13.16;59.35;102261.78;4923517;29;20051;-45
2023/04/10 10:24:09;;;;;;;10.27;4.55;;;;;;;13.22;59.31;102256.22;4927776;29;20107;-44
2023/04/10 10:26:37;;;;;;;13.18;5.05;;;;;;;13.27;59.21;102251.56;4925232;29;20067;-47
2023/04/10 10:29:05;;;;;;;15.80;5.10;;;;;;;13.31;59.19;102253.16;4919262;29;20107;-49
2023/04/10 10:31:32;;;;;;;12.15;4.65;;;;;;;13.35;59.21;102252.09;4928224;29;20043;-43
2023/04/10 10:34:03;;;;;;;11.20;4.97;;;;;;;13.49;58.96;102256.75;4918106;29;20476;-42
2023/04/10 10:36:30;;;;;;;12.32;5.57;;;;;;;13.56;58.81;102238.81;4904075;29;20039;-40
2023/04/10 10:39:20;;;;;;;13.93;5.65;;;;;;;13.67;58.75;102233.91;4925100;29;20032;-43
2023/04/10 10:41:55;;;;;;;15.15;5.95;;;;;;;13.75;58.68;102241.50;4921832;29;20063;-41
2023/04/10 10:44:59;;;;;;;16.65;6.38;;;;;;;13.85;58.36;102234.81;4926792;29;20563;-42
2023/04/10 10:47:27;;;;;;;14.60;7.13;;;;;;;13.94;58.31;102232.66;4920908;29;20031;-42
2023/04/10 10:49:58;;;;;;;13.57;6.35;;;;;;;14.03;58.33;102230.41;4927104;29;20115;-43
2023/04/10 10:52:57;;;;;;;14.32;9.10;;;;;;;14.14;57.18;102223.75;4923237;29;20449;-42
2023/04/10 10:55:35;;;;;;;14.63;6.43;;;;;;;14.17;57.68;102231.53;4907221;29;20054;-38
2023/04/10 10:58:05;;;;;;;11.60;5.93;;;;;;;14.27;57.21;102218.69;4929652;29;20110;-41
2023/04/10 11:00:51;;;;;;;10.85;5.88;;;;;;;14.38;56.74;102218.16;4926169;29;20484;-41
2023/04/10 11:03:16;;;;;;;14.07;6.95;;;;;;;14.42;57.08;102211.78;4915971;29;20501;-43
2023/04/10 11:06:01;;;;;;;18.88;8.27;;;;;;;14.53;56.64;102206.78;4928315;29;20039;-43
2023/04/10 11:08:32;;;;;;;16.13;7.22;;;;;;;14.59;56.64;102200.31;4928445;29;20051;-42
2023/04/10 11:11:06;;;;;;;13.75;6.47;;;;;;;14.61;56.46;102201.94;4928651;29;20035;-43
2023/04/10 11:13:33;;;;;;;13.95;7.18;;;;;;;14.68;56.52;102199.03;4923676;29;20028;-43
2023/04/10 11:16:00;;;;;;;14.88;8.30;;;;;;;14.79;56.72;102196.66;4928192;29;20028;-41
2023/04/10 11:18:44;;;;;;;17.67;6.60;;;;;;;14.92;56.04;102191.59;4909585;29;20118;-43
2023/04/10 11:21:12;;;;;;;15.55;7.20;;;;;;;15.00;56.50;102193.81;4923785;29;20028;-43
2023/04/10 11:23:53;;;;;;;16.58;8.45;;;;;;;15.15;55.93;102182.41;4922101;29;20732;-44
2023/04/10 11:26:34;;;;;;;18.73;8.38;;;;;;;15.28;54.85;102184.38;4923600;29;20036;-40
2023/04/10 11:29:03;;;;;;;16.90;7.93;;;;;;;15.36;55.27;102182.16;4927546;29;20026;-43